createdAt,value
2022-10-14T00:00:20.308Z,40.77
2022-10-14T00:02:47.807Z,40.99
2022-10-14T00:05:14.924Z,41.07
2022-10-14T00:07:42.079Z,40.46
2022-10-14T00:10:09.494Z,40.96
2022-10-14T00:12:36.625Z,41.50
2022-10-14T00:15:03.883Z,41.12
2022-10-14T00:17:31.278Z,41.03
2022-10-14T00:19:59.323Z,41.18
2022-10-14T00:22:26.438Z,41.30
2022-10-14T00:24:53.848Z,41.65
2022-10-14T00:27:21.111Z,41.85
2022-10-14T00:29:48.456Z,41.54
2022-10-14T00:32:15.842Z,41.69
2022-10-14T00:34:43.041Z,41.22
2022-10-14T00:37:10.150Z,41.39
2022-10-14T00:39:37.551Z,41.13
2022-10-14T00:42:04.666Z,40.90
2022-10-14T00:44:31.711Z,41.19
2022-10-14T00:46:59.336Z,41.15
2022-10-14T00:49:27.726Z,41.09
2022-10-14T00:52:01.934Z,41.24
2022-10-14T00:54:32.525Z,41.12
2022-10-14T00:56:59.723Z,41.44
2022-10-14T00:59:26.958Z,41.12
2022-10-14T01:01:54.345Z,41.50
2022-10-14T01:04:21.470Z,41.41
2022-10-14T01:06:54.606Z,41.26
2022-10-14T01:09:29.569Z,41.00
2022-10-14T01:12:28.184Z,41.20
2022-10-14T01:15:15.043Z,41.49
2022-10-14T01:17:54.114Z,41.36
2022-10-14T01:20:36.957Z,41.28
2022-10-14T01:23:12.980Z,41.24
2022-10-14T01:25:53.710Z,41.22
2022-10-14T01:28:28.139Z,41.09
2022-10-14T01:30:59.662Z,41.28
2022-10-14T01:33:27.537Z,41.24
2022-10-14T01:35:54.661Z,40.98
2022-10-14T01:38:32.436Z,40.91
2022-10-14T01:41:10.178Z,40.87
2022-10-14T01:43:38.017Z,40.74
2022-10-14T01:46:06.160Z,40.79
2022-10-14T01:48:34.345Z,40.74
2022-10-14T01:51:02.004Z,40.87
2022-10-14T01:53:30.598Z,40.55
2022-10-14T01:55:57.945Z,41.01
2022-10-14T01:58:26.695Z,41.15
2022-10-14T02:00:53.900Z,41.08
2022-10-14T02:03:21.556Z,41.03
2022-10-14T02:05:53.181Z,40.95
2022-10-14T02:08:39.524Z,41.20
2022-10-14T02:11:06.847Z,41.24
2022-10-14T02:13:34.353Z,41.12
2022-10-14T02:16:07.555Z,41.21
2022-10-14T02:18:49.373Z,41.31
2022-10-14T02:21:25.710Z,41.75
2022-10-14T02:24:18.325Z,41.77
2022-10-14T02:26:45.729Z,41.49
2022-10-14T02:29:13.171Z,41.24
2022-10-14T02:31:40.847Z,41.78
2022-10-14T02:34:09.108Z,40.97
2022-10-14T02:36:37.123Z,40.78
2022-10-14T02:39:05.068Z,40.85
2022-10-14T02:41:34.072Z,40.75
2022-10-14T02:44:01.310Z,40.40
2022-10-14T02:46:29.182Z,40.61
2022-10-14T02:48:56.593Z,40.72
2022-10-14T02:51:23.739Z,40.67
2022-10-14T02:53:50.879Z,40.63
2022-10-14T02:56:18.510Z,40.74
2022-10-14T02:58:45.975Z,40.88
2022-10-14T03:01:13.486Z,40.73
2022-10-14T03:03:40.922Z,41.49
2022-10-14T03:06:08.267Z,41.33
2022-10-14T03:08:35.637Z,41.51
2022-10-14T03:11:04.530Z,41.15
2022-10-14T03:13:32.121Z,41.28
2022-10-14T03:15:59.927Z,41.66
2022-10-14T03:18:27.384Z,41.66
2022-10-14T03:20:56.786Z,42.14
2022-10-14T03:23:24.419Z,41.83
2022-10-14T03:25:53.276Z,42.04
2022-10-14T03:28:21.201Z,42.42
2022-10-14T03:30:48.534Z,41.96
2022-10-14T03:33:17.824Z,42.28
2022-10-14T03:35:47.879Z,41.76
2022-10-14T03:38:16.505Z,42.06
2022-10-14T03:40:43.814Z,42.16
2022-10-14T03:43:11.386Z,41.98
2022-10-14T03:45:39.986Z,42.35
2022-10-14T03:48:09.540Z,42.27
2022-10-14T03:50:39.698Z,42.22
2022-10-14T03:53:07.413Z,42.92
2022-10-14T03:55:35.016Z,42.91
2022-10-14T03:58:03.327Z,42.97
2022-10-14T04:00:30.798Z,42.51
2022-10-14T04:02:59.913Z,42.29
2022-10-14T04:05:32.544Z,42.31
2022-10-14T04:08:00.959Z,42.26
2022-10-14T04:10:28.527Z,42.22
2022-10-14T04:12:56.128Z,42.32
2022-10-14T04:15:24.343Z,42.04
2022-10-14T04:17:52.648Z,41.96
2022-10-14T04:20:20.418Z,41.79
2022-10-14T04:22:48.274Z,42.04
2022-10-14T04:25:16.433Z,41.68
2022-10-14T04:27:49.485Z,41.92
2022-10-14T04:30:17.590Z,41.35
2022-10-14T04:32:46.332Z,41.40
2022-10-14T04:35:13.593Z,40.83
2022-10-14T04:37:41.670Z,41.08
2022-10-14T04:40:09.380Z,41.41
2022-10-14T04:42:38.996Z,41.75
2022-10-14T04:45:07.446Z,42.19
2022-10-14T04:47:36.914Z,42.34
2022-10-14T04:50:04.175Z,42.12
2022-10-14T04:52:31.788Z,42.00
2022-10-14T04:54:59.619Z,41.95
2022-10-14T04:57:29.091Z,41.84
2022-10-14T04:59:56.557Z,42.51
2022-10-14T05:02:25.134Z,41.96
2022-10-14T05:04:52.465Z,41.78
2022-10-14T05:07:20.098Z,42.02
2022-10-14T05:09:51.163Z,41.68
2022-10-14T05:12:21.077Z,41.67
2022-10-14T05:14:49.676Z,41.61
2022-10-14T05:17:18.313Z,41.59
2022-10-14T05:19:46.264Z,41.98
2022-10-14T05:22:13.878Z,41.91
2022-10-14T05:24:41.909Z,42.50
2022-10-14T05:27:09.302Z,42.22
2022-10-14T05:29:36.754Z,42.26
2022-10-14T05:32:04.059Z,43.50
2022-10-14T05:34:32.069Z,42.46
2022-10-14T05:36:59.556Z,41.83
2022-10-14T05:39:29.472Z,42.44
2022-10-14T05:41:57.116Z,42.26
2022-10-14T05:44:24.820Z,42.64
2022-10-14T05:46:52.578Z,42.86
2022-10-14T05:49:20.001Z,42.37
2022-10-14T05:51:47.976Z,42.18
2022-10-14T05:54:15.681Z,42.12
2022-10-14T05:56:43.488Z,41.90
2022-10-14T05:59:10.961Z,42.66
2022-10-14T06:01:38.413Z,42.61
2022-10-14T06:04:05.790Z,43.89
2022-10-14T06:06:32.960Z,43.68
2022-10-14T06:09:00.088Z,45.82
2022-10-14T06:11:27.518Z,45.83
2022-10-14T06:13:54.645Z,46.98
2022-10-14T06:16:21.830Z,49.34
2022-10-14T06:18:53.589Z,47.29
2022-10-14T06:21:21.866Z,45.55
2022-10-14T06:23:49.273Z,46.77
2022-10-14T06:26:16.381Z,45.83
2022-10-14T06:28:43.750Z,45.22
2022-10-14T06:31:11.171Z,44.41
2022-10-14T06:33:38.279Z,43.57
2022-10-14T06:36:05.830Z,43.88
2022-10-14T06:38:33.503Z,43.16
2022-10-14T06:41:01.017Z,43.59
2022-10-14T06:43:28.146Z,43.93
2022-10-14T06:45:56.888Z,42.96
2022-10-14T06:48:23.999Z,43.03
2022-10-14T06:50:51.115Z,43.18
2022-10-14T06:53:18.570Z,41.93
2022-10-14T06:55:45.739Z,43.72
2022-10-14T06:58:12.878Z,43.91
2022-10-14T07:00:44.291Z,46.48
2022-10-14T07:03:14.484Z,44.65
2022-10-14T07:05:41.864Z,47.14
2022-10-14T07:08:11.415Z,46.26
2022-10-14T07:10:42.353Z,45.21
2022-10-14T07:13:09.477Z,45.96
2022-10-14T07:15:37.499Z,45.47
2022-10-14T07:18:05.368Z,46.06
2022-10-14T07:20:33.461Z,45.49
2022-10-14T07:23:00.581Z,44.92
2022-10-14T07:25:27.960Z,44.43
2022-10-14T07:27:55.104Z,45.71
2022-10-14T07:30:22.450Z,44.65
2022-10-14T07:32:49.857Z,47.29
2022-10-14T07:35:17.203Z,44.37
2022-10-14T07:37:44.426Z,44.92
2022-10-14T07:40:12.189Z,46.47
2022-10-14T07:42:39.346Z,45.52
2022-10-14T07:45:06.930Z,45.73
2022-10-14T07:47:34.380Z,46.21
2022-10-14T07:50:04.498Z,45.16
2022-10-14T07:52:31.609Z,44.11
2022-10-14T07:54:58.985Z,43.73
2022-10-14T07:57:27.707Z,45.09
2022-10-14T07:59:54.845Z,44.70
2022-10-14T08:02:23.485Z,44.13
2022-10-14T08:04:56.368Z,44.73
2022-10-14T08:07:29.378Z,44.13
2022-10-14T08:09:56.741Z,43.19
2022-10-14T08:12:24.521Z,42.77
2022-10-14T08:14:52.492Z,42.97
2022-10-14T08:17:20.365Z,41.76
2022-10-14T08:19:49.115Z,40.48
2022-10-14T08:22:16.231Z,41.97
2022-10-14T08:24:44.388Z,43.11
2022-10-14T08:27:11.562Z,43.42
2022-10-14T08:29:38.685Z,42.11
2022-10-14T08:32:06.085Z,42.22
2022-10-14T08:34:33.656Z,42.96
2022-10-14T08:37:01.559Z,42.10
2022-10-14T08:39:28.942Z,41.34
2022-10-14T08:42:12.539Z,41.80
2022-10-14T08:44:44.084Z,43.06
2022-10-14T08:47:12.993Z,43.66
2022-10-14T08:49:40.585Z,44.63
2022-10-14T08:52:07.690Z,44.18
2022-10-14T08:54:43.295Z,43.98
2022-10-14T08:57:17.985Z,43.62
2022-10-14T08:59:45.105Z,44.02
2022-10-14T09:02:34.191Z,44.45
2022-10-14T09:05:02.258Z,43.91
2022-10-14T09:07:29.709Z,43.53
2022-10-14T09:09:57.399Z,42.36
2022-10-14T09:12:26.608Z,42.32
2022-10-14T09:15:14.193Z,44.51
2022-10-14T09:17:45.926Z,41.70
2022-10-14T09:20:20.676Z,39.71
2022-10-14T09:22:53.706Z,41.39
2022-10-14T09:25:21.732Z,40.85
2022-10-14T09:27:48.859Z,42.00
2022-10-14T09:30:16.165Z,41.54
2022-10-14T09:32:44.422Z,41.79
2022-10-14T09:35:25.041Z,39.99
2022-10-14T09:37:52.664Z,40.43
2022-10-14T09:40:32.608Z,39.93
2022-10-14T09:43:09.258Z,40.33
2022-10-14T09:45:54.587Z,39.58
2022-10-14T09:48:37.774Z,40.75
2022-10-14T09:53:41.122Z,39.76
2022-10-14T09:56:08.755Z,40.02
2022-10-14T09:58:43.486Z,43.04
2022-10-14T10:01:19.097Z,39.61
2022-10-14T10:03:47.149Z,40.73
2022-10-14T10:06:15.606Z,42.97
2022-10-14T10:09:01.300Z,41.38
2022-10-14T10:11:37.584Z,42.40
2022-10-14T10:14:17.524Z,42.20
2022-10-14T10:16:44.967Z,41.30
2022-10-14T10:19:27.583Z,40.40
2022-10-14T10:21:55.590Z,42.46
2022-10-14T10:24:26.067Z,42.83
2022-10-14T10:26:56.170Z,41.59
2022-10-14T10:29:24.325Z,40.63
2022-10-14T10:32:10.186Z,41.53
2022-10-14T10:35:00.906Z,40.71
2022-10-14T10:37:28.698Z,40.66
2022-10-14T10:40:14.924Z,41.04
2022-10-14T10:42:48.820Z,39.56
2022-10-14T10:45:25.317Z,40.00
2022-10-14T10:47:55.179Z,40.58
2022-10-14T10:50:33.800Z,40.64
2022-10-14T10:53:15.376Z,41.31
2022-10-14T10:58:20.732Z,38.96
2022-10-14T11:00:50.226Z,37.41
2022-10-14T11:03:36.045Z,37.58
2022-10-14T11:06:03.361Z,38.35
2022-10-14T11:09:07.223Z,40.46
2022-10-14T11:11:59.981Z,37.55
2022-10-14T11:14:30.176Z,38.24
2022-10-14T11:17:17.854Z,37.68
2022-10-14T11:19:48.154Z,37.34
2022-10-14T11:22:16.929Z,37.87
2022-10-14T11:24:57.074Z,37.28
2022-10-14T11:27:43.113Z,35.93
2022-10-14T11:30:10.238Z,37.81
2022-10-14T11:32:41.277Z,39.51
2022-10-14T11:35:12.447Z,36.38
2022-10-14T11:37:39.821Z,39.00
2022-10-14T11:40:18.839Z,37.33
2022-10-14T11:42:47.125Z,37.88
2022-10-14T11:45:16.032Z,37.31
2022-10-14T11:47:47.808Z,37.67
2022-10-14T11:50:15.012Z,39.40
2022-10-14T11:52:47.043Z,37.42
2022-10-14T11:55:16.713Z,38.83
2022-10-14T11:57:51.058Z,38.85
2022-10-14T12:00:20.557Z,39.87
2022-10-14T12:03:10.369Z,38.04
2022-10-14T12:05:45.385Z,37.08
2022-10-14T12:08:33.278Z,39.65
2022-10-14T12:11:04.626Z,41.28
2022-10-14T12:13:33.272Z,39.54
2022-10-14T12:16:01.292Z,40.82
2022-10-14T12:18:28.677Z,39.59
2022-10-14T12:20:58.900Z,38.95
2022-10-14T12:23:39.654Z,38.68
2022-10-14T12:26:11.148Z,37.55
2022-10-14T12:28:38.314Z,36.88
2022-10-14T12:31:25.860Z,37.01
2022-10-14T12:34:11.625Z,39.41
2022-10-14T12:36:39.012Z,37.82
2022-10-14T12:39:18.704Z,35.90
2022-10-14T12:41:55.583Z,37.34
2022-10-14T12:44:23.374Z,37.09
2022-10-14T12:46:52.047Z,39.37
2022-10-14T12:49:20.610Z,38.11
2022-10-14T12:51:55.238Z,37.57
2022-10-14T12:54:22.580Z,37.06
2022-10-14T12:56:54.799Z,35.61
2022-10-14T12:59:42.208Z,36.17
2022-10-14T13:02:25.589Z,36.40
2022-10-14T13:04:53.534Z,36.50
2022-10-14T13:07:42.586Z,35.81
2022-10-14T13:10:26.355Z,36.07
2022-10-14T13:12:53.783Z,36.51
2022-10-14T13:15:29.821Z,38.33
2022-10-14T13:17:57.226Z,36.86
2022-10-14T13:20:33.611Z,39.44
2022-10-14T13:23:19.764Z,38.19
2022-10-14T13:25:49.192Z,39.75
2022-10-14T13:28:21.755Z,37.06
2022-10-14T13:30:59.766Z,38.76
2022-10-14T13:33:32.171Z,38.68
2022-10-14T13:36:03.963Z,39.36
2022-10-14T13:38:31.668Z,38.04
2022-10-14T13:40:58.772Z,38.57
2022-10-14T13:43:29.792Z,36.58
2022-10-14T13:45:57.431Z,38.08
2022-10-14T13:48:29.759Z,37.51
2022-10-14T13:51:17.275Z,37.21
2022-10-14T13:53:53.071Z,38.65
2022-10-14T13:56:21.619Z,37.75
2022-10-14T13:58:49.625Z,37.67
2022-10-14T14:01:17.769Z,38.30
2022-10-14T14:03:45.512Z,39.13
2022-10-14T14:06:14.504Z,39.02
2022-10-14T14:08:50.931Z,38.05
2022-10-14T14:11:25.692Z,38.18
2022-10-14T14:14:00.266Z,37.32
2022-10-14T14:16:48.946Z,39.25
2022-10-14T14:19:19.285Z,38.45
2022-10-14T14:21:46.680Z,38.31
2022-10-14T14:24:18.834Z,38.06
2022-10-14T14:26:50.195Z,39.08
2022-10-14T14:29:18.952Z,38.35
2022-10-14T14:34:35.047Z,39.24
2022-10-14T14:37:10.933Z,39.07
2022-10-14T14:39:59.723Z,38.95
2022-10-14T14:42:27.386Z,39.02
2022-10-14T14:44:55.674Z,38.94
2022-10-14T14:47:23.007Z,39.14
2022-10-14T14:49:57.500Z,39.40
2022-10-14T14:52:38.652Z,38.73
2022-10-14T14:55:07.170Z,39.34
2022-10-14T14:57:34.289Z,39.23
2022-10-14T15:00:03.749Z,39.60
2022-10-14T15:02:31.380Z,40.22
2022-10-14T15:05:02.899Z,39.81
2022-10-14T15:07:30.441Z,39.52
2022-10-14T15:10:00.989Z,39.39
2022-10-14T15:12:42.487Z,39.05
2022-10-14T15:15:26.311Z,38.78
2022-10-14T15:18:13.829Z,39.36
2022-10-14T15:20:44.390Z,38.46
2022-10-14T15:23:32.776Z,38.34
2022-10-14T15:26:00.205Z,38.10
2022-10-14T15:28:32.080Z,38.47
2022-10-14T15:31:04.847Z,38.30
2022-10-14T15:33:32.972Z,38.22
2022-10-14T15:36:01.759Z,38.11
2022-10-14T15:38:29.406Z,38.31
2022-10-14T15:40:56.556Z,38.31
2022-10-14T15:43:24.948Z,38.61
2022-10-14T15:46:14.016Z,38.48
2022-10-14T15:48:42.423Z,38.40
2022-10-14T15:51:11.181Z,38.42
2022-10-14T15:53:38.286Z,38.74
2022-10-14T15:56:05.776Z,38.83
2022-10-14T15:58:33.722Z,38.79
2022-10-14T16:01:02.105Z,38.77
2022-10-14T16:03:34.559Z,38.94
2022-10-14T16:06:03.105Z,38.96
2022-10-14T16:08:30.476Z,39.14
2022-10-14T16:10:59.157Z,38.94
2022-10-14T16:13:26.272Z,39.01
2022-10-14T16:15:54.149Z,39.40
2022-10-14T16:18:23.310Z,39.70
2022-10-14T16:20:51.937Z,40.01
2022-10-14T16:23:20.234Z,39.36
2022-10-14T16:25:49.083Z,39.67
2022-10-14T16:28:18.209Z,39.49
2022-10-14T16:30:48.697Z,39.65
2022-10-14T16:33:19.270Z,39.32
2022-10-14T16:35:47.317Z,39.51
2022-10-14T16:38:14.604Z,39.94
2022-10-14T16:40:41.716Z,39.75
2022-10-14T16:43:10.152Z,40.08
2022-10-14T16:45:37.487Z,39.98
2022-10-14T16:48:04.609Z,39.84
2022-10-14T16:50:32.041Z,39.77
2022-10-14T16:53:18.037Z,39.62
2022-10-14T16:55:45.535Z,39.47
2022-10-14T16:58:12.669Z,39.50
2022-10-14T17:00:39.810Z,39.47
2022-10-14T17:03:10.476Z,39.58
2022-10-14T17:05:37.600Z,39.87
2022-10-14T17:08:07.810Z,39.62
2022-10-14T17:10:35.200Z,39.46
2022-10-14T17:13:02.302Z,39.48
2022-10-14T17:15:30.736Z,39.78
2022-10-14T17:17:58.113Z,39.90
2022-10-14T17:20:26.303Z,39.57
2022-10-14T17:22:53.428Z,39.64
2022-10-14T17:25:20.843Z,40.05
2022-10-14T17:27:47.956Z,39.85
2022-10-14T17:30:15.490Z,39.66
2022-10-14T17:32:43.071Z,39.64
2022-10-14T17:35:14.357Z,39.73
2022-10-14T17:37:43.671Z,39.87
2022-10-14T17:40:11.305Z,39.65
2022-10-14T17:42:38.919Z,39.61
2022-10-14T17:45:07.127Z,39.59
2022-10-14T17:47:34.261Z,40.31
2022-10-14T17:50:01.451Z,40.27
2022-10-14T17:52:29.267Z,40.34
2022-10-14T17:54:59.016Z,40.11
2022-10-14T17:57:28.984Z,40.30
2022-10-14T17:59:56.129Z,40.02
2022-10-14T18:02:24.580Z,39.80
2022-10-14T18:04:52.010Z,40.01
2022-10-14T18:07:23.198Z,40.05
2022-10-14T18:09:51.686Z,40.05
2022-10-14T18:12:19.166Z,40.18
2022-10-14T18:14:46.322Z,40.02
2022-10-14T18:17:13.461Z,39.94
2022-10-14T18:19:42.011Z,40.15
2022-10-14T18:22:11.215Z,40.06
2022-10-14T18:24:39.335Z,39.98
2022-10-14T18:27:07.031Z,39.72
2022-10-14T18:29:34.331Z,39.83
2022-10-14T18:32:01.514Z,39.84
2022-10-14T18:34:28.976Z,39.65
2022-10-14T18:36:56.494Z,40.05
2022-10-14T18:39:24.250Z,39.86
2022-10-14T18:41:52.099Z,39.76
2022-10-14T18:44:19.378Z,39.69
2022-10-14T18:46:47.673Z,39.71
2022-10-14T18:49:15.258Z,39.58
2022-10-14T18:51:43.343Z,39.59
2022-10-14T18:54:13.125Z,39.58
2022-10-14T18:56:40.823Z,39.59
2022-10-14T18:59:09.838Z,39.46
2022-10-14T19:01:38.019Z,39.67
2022-10-14T19:04:06.239Z,39.80
2022-10-14T19:06:33.716Z,39.87
2022-10-14T19:09:04.266Z,40.00
2022-10-14T19:11:32.431Z,40.02
2022-10-14T19:14:00.707Z,39.92
2022-10-14T19:16:29.235Z,40.02
2022-10-14T19:19:18.618Z,40.15
2022-10-14T19:21:46.635Z,39.79
2022-10-14T19:24:14.599Z,40.10
2022-10-14T19:26:43.443Z,40.22
2022-10-14T19:29:11.940Z,40.39
2022-10-14T19:31:40.041Z,40.82
2022-10-14T19:34:08.043Z,41.43
2022-10-14T19:36:36.689Z,41.42
2022-10-14T19:39:05.598Z,41.60
2022-10-14T19:41:34.591Z,41.10
2022-10-14T19:44:02.195Z,41.56
2022-10-14T19:46:30.449Z,41.33
2022-10-14T19:49:04.837Z,40.99
2022-10-14T19:51:33.136Z,41.16
2022-10-14T19:54:00.404Z,40.49
2022-10-14T19:56:28.371Z,40.21
2022-10-14T19:58:56.646Z,40.19
2022-10-14T20:01:24.586Z,40.07
2022-10-14T20:03:52.670Z,40.28
2022-10-14T20:06:20.370Z,40.01
2022-10-14T20:08:48.577Z,40.46
2022-10-14T20:11:17.571Z,40.50
2022-10-14T20:13:44.977Z,41.23
2022-10-14T20:16:12.523Z,41.30
2022-10-14T20:18:39.962Z,41.71
2022-10-14T20:21:07.389Z,42.07
2022-10-14T20:23:35.189Z,42.47
2022-10-14T20:26:03.285Z,42.03
2022-10-14T20:28:30.473Z,41.80
2022-10-14T20:30:57.654Z,42.10
2022-10-14T20:33:25.405Z,41.50
2022-10-14T20:35:59.048Z,41.65
2022-10-14T20:38:26.541Z,41.72
2022-10-14T20:40:53.654Z,42.24
2022-10-14T20:43:21.548Z,41.99
2022-10-14T20:45:49.010Z,41.92
2022-10-14T20:48:16.241Z,41.92
2022-10-14T20:50:43.477Z,42.02
2022-10-14T20:53:10.927Z,42.53
2022-10-14T20:55:38.031Z,42.59
2022-10-14T20:58:05.154Z,43.45
2022-10-14T21:00:32.543Z,43.38
2022-10-14T21:02:59.656Z,43.60
2022-10-14T21:05:26.808Z,43.35
2022-10-14T21:07:54.342Z,43.87
2022-10-14T21:10:21.709Z,43.63
2022-10-14T21:12:49.101Z,43.38
2022-10-14T21:15:16.792Z,43.14
2022-10-14T21:17:47.704Z,42.91
2022-10-14T21:20:15.055Z,42.21
2022-10-14T21:22:42.541Z,42.86
2022-10-14T21:25:09.849Z,43.38
2022-10-14T21:27:37.023Z,43.13
2022-10-14T21:30:04.790Z,43.29
2022-10-14T21:32:32.088Z,42.68
2022-10-14T21:34:59.522Z,42.96
2022-10-14T21:37:26.974Z,42.99
2022-10-14T21:39:54.408Z,42.83
2022-10-14T21:42:21.867Z,43.03
2022-10-14T21:44:49.710Z,42.73
2022-10-14T21:47:16.845Z,42.82
2022-10-14T21:49:44.325Z,42.72
2022-10-14T21:52:12.044Z,42.61
2022-10-14T21:54:39.180Z,42.77
2022-10-14T21:57:06.489Z,42.26
2022-10-14T21:59:33.858Z,42.49
2022-10-14T22:02:00.967Z,42.46
2022-10-14T22:04:28.346Z,42.53
2022-10-14T22:06:55.649Z,42.41
2022-10-14T22:09:22.803Z,42.48
2022-10-14T22:11:50.540Z,42.43
2022-10-14T22:14:17.658Z,42.63
2022-10-14T22:16:47.625Z,42.75
2022-10-14T22:19:15.891Z,42.52
2022-10-14T22:21:43.238Z,42.07
2022-10-14T22:24:10.942Z,41.83
2022-10-14T22:26:38.456Z,41.59
2022-10-14T22:29:15.304Z,41.16
2022-10-14T22:31:42.679Z,41.04
2022-10-14T22:34:10.431Z,41.04
2022-10-14T22:36:37.604Z,41.32
2022-10-14T22:39:06.943Z,41.13
2022-10-14T22:41:35.713Z,41.22
2022-10-14T22:44:03.656Z,40.75
2022-10-14T22:46:31.907Z,40.66
2022-10-14T22:48:59.814Z,40.67
2022-10-14T22:51:31.373Z,40.38
2022-10-14T22:53:58.922Z,40.54
2022-10-14T22:56:27.493Z,40.73
2022-10-14T22:58:58.675Z,40.71
2022-10-14T23:01:27.961Z,40.54
2022-10-14T23:03:55.619Z,41.11
2022-10-14T23:06:22.793Z,41.18
2022-10-14T23:08:50.315Z,40.89
2022-10-14T23:11:18.383Z,41.12
2022-10-14T23:13:45.889Z,40.99
2022-10-14T23:16:14.457Z,41.04
2022-10-14T23:21:13.976Z,41.02
2022-10-14T23:23:41.312Z,40.67
2022-10-14T23:26:09.107Z,40.37
2022-10-14T23:28:36.626Z,40.57
2022-10-14T23:31:13.855Z,40.62
2022-10-14T23:33:41.372Z,40.75
2022-10-14T23:36:10.737Z,40.92
2022-10-14T23:38:37.827Z,40.87
2022-10-14T23:41:05.758Z,40.99
2022-10-14T23:43:33.220Z,41.01
2022-10-14T23:46:00.337Z,40.93
2022-10-14T23:48:28.047Z,40.89
2022-10-14T23:50:55.234Z,41.07
2022-10-14T23:53:22.534Z,41.34
2022-10-14T23:55:49.910Z,41.29
2022-10-14T23:58:17.050Z,41.23
